Terminal Aerodrome Forecast
Issued by NWS

Home | Current Version | Previous Version | Text Only | Print | Product List | Glossary On
Versions: 1 2 3 4 5 6 7 8 9 10 11 12 13 14 15 16 17
000
FTAK31 PAJN 200500
TAFAPG
TAF
PAPG 200525Z 2006/2106 VRB03KT P6SM SCT030 SCT070
     FM200900 00000KT 2SM BR BCFG BKN004
      TEMPO 2009/2013 1SM BR BCFG OVC002
     FM201600 VRB03KT 3SM BR FEW002 SCT004
     FM201800 06006KT P6SM SCT040 SCT100
      AMD LTD TO CLD VIS AND WIND TIL 201500=

USA.gov is the U.S. government's official web portal to all federal, state and local government web resources and services.